createdAt,value
2017-10-20T00:02:18.866Z,67.60
2017-10-20T00:04:47.000Z,67.80
2017-10-20T00:07:15.181Z,68.20
2017-10-20T00:09:44.094Z,68.80
2017-10-20T00:12:12.262Z,67.90
2017-10-20T00:14:40.427Z,67.80
2017-10-20T00:17:09.366Z,67.70
2017-10-20T00:19:37.629Z,67.60
2017-10-20T00:22:05.773Z,67.80
2017-10-20T00:24:34.725Z,68.20
2017-10-20T00:27:02.869Z,68.20
2017-10-20T00:29:31.034Z,68.20
2017-10-20T00:31:59.176Z,68.30
2017-10-20T00:34:28.224Z,68.10
2017-10-20T00:36:56.382Z,68.10
2017-10-20T00:39:24.525Z,68.30
2017-10-20T00:41:53.461Z,68.10
2017-10-20T00:44:21.603Z,68.10
2017-10-20T00:46:49.782Z,68.10
2017-10-20T00:49:17.921Z,68.00
2017-10-20T00:51:46.188Z,68.00
2017-10-20T00:54:14.358Z,68.10
2017-10-20T00:56:42.507Z,68.30
2017-10-20T00:59:10.689Z,68.00
2017-10-20T01:01:38.829Z,68.50
2017-10-20T01:04:07.002Z,68.60
2017-10-20T01:06:35.145Z,68.40
2017-10-20T01:09:03.447Z,68.40
2017-10-20T01:11:31.616Z,68.20
2017-10-20T01:13:59.755Z,68.30
2017-10-20T01:16:27.922Z,68.40
2017-10-20T01:18:56.082Z,68.30
2017-10-20T01:21:24.256Z,68.20
2017-10-20T01:23:52.397Z,68.20
2017-10-20T01:26:20.700Z,68.10
2017-10-20T01:28:48.876Z,68.30
2017-10-20T01:31:17.021Z,68.30
2017-10-20T01:33:45.197Z,69.10
2017-10-20T01:36:13.337Z,68.40
2017-10-20T01:38:42.268Z,68.40
2017-10-20T01:41:10.425Z,68.30
2017-10-20T01:43:38.564Z,68.40
2017-10-20T01:46:07.477Z,68.70
2017-10-20T01:48:35.642Z,68.60
2017-10-20T01:51:04.581Z,68.80
2017-10-20T01:53:32.721Z,68.80
2017-10-20T01:56:00.887Z,69.10
2017-10-20T01:58:29.037Z,69.00
2017-10-20T02:00:57.324Z,69.00
2017-10-20T02:03:26.238Z,69.20
2017-10-20T02:05:54.412Z,69.20
2017-10-20T02:08:22.557Z,69.20
2017-10-20T02:10:50.708Z,69.20
2017-10-20T02:13:18.902Z,69.30
2017-10-20T02:15:47.047Z,69.10
2017-10-20T02:18:15.336Z,69.20
2017-10-20T02:20:43.482Z,69.90
2017-10-20T02:23:11.665Z,69.20
2017-10-20T02:25:39.824Z,69.30
2017-10-20T02:28:07.970Z,69.20
2017-10-20T02:30:36.142Z,69.20
2017-10-20T02:33:04.284Z,69.60
2017-10-20T02:35:32.566Z,69.50
2017-10-20T02:38:00.708Z,69.60
2017-10-20T02:40:28.883Z,69.20
2017-10-20T02:42:57.030Z,69.20
2017-10-20T02:45:25.213Z,69.60
2017-10-20T02:47:53.356Z,69.90
2017-10-20T02:50:21.522Z,70.00
2017-10-20T02:52:50.566Z,70.00
2017-10-20T02:55:18.706Z,70.00
2017-10-20T02:57:46.888Z,70.10
2017-10-20T03:00:15.028Z,70.10
2017-10-20T03:02:43.199Z,70.10
2017-10-20T03:05:12.119Z,70.00
2017-10-20T03:07:40.413Z,70.00
2017-10-20T03:10:08.589Z,69.70
2017-10-20T03:12:36.774Z,69.80
2017-10-20T03:15:04.927Z,69.80
2017-10-20T03:17:33.064Z,69.90
2017-10-20T03:20:02.001Z,69.80
2017-10-20T03:22:30.150Z,69.80
2017-10-20T03:24:58.464Z,69.80
2017-10-20T03:27:26.636Z,69.90
2017-10-20T03:29:54.804Z,69.90
2017-10-20T03:32:22.953Z,70.00
2017-10-20T03:34:51.112Z,70.10
2017-10-20T03:37:19.256Z,70.20
2017-10-20T03:39:47.417Z,70.20
2017-10-20T03:42:15.563Z,70.50
2017-10-20T03:44:44.605Z,70.60
2017-10-20T03:47:12.743Z,70.60
2017-10-20T03:49:40.913Z,70.60
2017-10-20T03:52:09.085Z,70.50
2017-10-20T03:54:37.222Z,70.70
2017-10-20T03:57:05.409Z,70.60
2017-10-20T03:59:33.544Z,70.60
2017-10-20T04:02:01.741Z,70.70
2017-10-20T04:04:29.884Z,71.20
2017-10-20T04:06:58.028Z,71.70
2017-10-20T04:09:26.196Z,71.70
2017-10-20T04:11:54.357Z,71.60
2017-10-20T04:14:22.621Z,72.10
2017-10-20T04:16:50.818Z,73.20
2017-10-20T04:19:18.969Z,73.10
2017-10-20T04:21:47.134Z,72.90
2017-10-20T04:24:15.321Z,72.70
2017-10-20T04:26:43.461Z,72.20
2017-10-20T04:29:12.370Z,71.90
2017-10-20T04:31:40.570Z,71.80
2017-10-20T04:34:08.751Z,72.10
2017-10-20T04:36:36.897Z,72.20
2017-10-20T04:39:05.061Z,72.10
2017-10-20T04:41:33.970Z,71.80
2017-10-20T04:44:02.140Z,71.60
2017-10-20T04:46:30.278Z,71.80
2017-10-20T04:48:58.474Z,71.60
2017-10-20T04:51:26.650Z,71.60
2017-10-20T04:53:55.568Z,71.40
2017-10-20T04:56:23.726Z,71.40
2017-10-20T04:58:51.866Z,71.30
2017-10-20T05:01:20.033Z,71.30
2017-10-20T05:03:48.178Z,71.20
2017-10-20T05:06:16.441Z,71.20
2017-10-20T05:08:44.581Z,71.10
2017-10-20T05:11:12.756Z,71.20
2017-10-20T05:13:41.683Z,71.10
2017-10-20T05:16:09.847Z,71.10
2017-10-20T05:18:37.995Z,71.30
2017-10-20T05:21:06.189Z,71.20
2017-10-20T05:23:34.345Z,71.20
2017-10-20T05:26:03.310Z,71.00
2017-10-20T05:28:31.455Z,71.00
2017-10-20T05:30:59.621Z,71.30
2017-10-20T05:33:27.802Z,71.10
2017-10-20T05:35:55.948Z,71.10
2017-10-20T05:38:24.221Z,71.10
2017-10-20T05:40:52.428Z,71.20
2017-10-20T05:43:20.551Z,71.20
2017-10-20T05:45:48.720Z,71.00
2017-10-20T05:48:16.869Z,71.10
2017-10-20T05:50:44.993Z,71.20
2017-10-20T05:53:13.168Z,71.10
2017-10-20T05:55:41.309Z,71.00
2017-10-20T05:58:10.357Z,71.30
2017-10-20T06:00:38.495Z,71.10
2017-10-20T06:03:06.669Z,71.20
2017-10-20T06:05:34.813Z,71.00
2017-10-20T06:08:03.862Z,71.20
2017-10-20T06:10:32.001Z,71.20
2017-10-20T06:13:00.146Z,71.10
2017-10-20T06:15:33.182Z,71.10
2017-10-20T06:18:01.322Z,70.80
2017-10-20T06:20:30.247Z,71.00
2017-10-20T06:22:58.403Z,70.90
2017-10-20T06:25:26.574Z,70.90
2017-10-20T06:27:54.717Z,70.90
2017-10-20T06:30:22.997Z,70.80
2017-10-20T06:32:51.154Z,71.10
2017-10-20T06:35:19.319Z,70.60
2017-10-20T06:37:47.456Z,70.70
2017-10-20T06:40:15.745Z,70.60
2017-10-20T06:42:43.928Z,70.50
2017-10-20T06:45:12.075Z,70.60
2017-10-20T06:47:40.254Z,70.70
2017-10-20T06:50:08.415Z,70.70
2017-10-20T06:52:36.594Z,70.70
2017-10-20T06:55:04.729Z,70.40
2017-10-20T06:57:33.013Z,70.70
2017-10-20T07:00:01.164Z,70.60
2017-10-20T07:02:29.286Z,70.50
2017-10-20T07:04:57.485Z,70.90
2017-10-20T07:07:25.672Z,70.90
2017-10-20T07:09:53.853Z,70.80
2017-10-20T07:12:21.988Z,70.90
2017-10-20T07:14:50.265Z,70.90
2017-10-20T07:17:18.410Z,70.90
2017-10-20T07:19:47.369Z,71.00
2017-10-20T07:22:15.509Z,71.00
2017-10-20T07:24:43.709Z,70.90
2017-10-20T07:27:11.848Z,70.70
2017-10-20T07:29:39.979Z,70.60
2017-10-20T07:32:08.276Z,70.10
2017-10-20T07:34:37.201Z,69.70
2017-10-20T07:37:05.356Z,69.70
2017-10-20T07:39:33.508Z,69.90
2017-10-20T07:42:01.672Z,70.10
2017-10-20T07:44:29.827Z,70.10
2017-10-20T07:46:57.967Z,69.40
2017-10-20T07:49:26.252Z,68.90
2017-10-20T07:51:54.399Z,69.10
2017-10-20T07:54:22.593Z,68.90
2017-10-20T07:56:50.734Z,69.00
2017-10-20T07:59:19.697Z,68.30
2017-10-20T08:01:47.844Z,68.30
2017-10-20T08:04:16.042Z,68.80
2017-10-20T08:06:44.226Z,68.40
2017-10-20T08:09:12.364Z,68.10
2017-10-20T08:11:40.545Z,67.60
2017-10-20T08:14:08.701Z,67.30
2017-10-20T08:16:36.850Z,67.30
2017-10-20T08:19:04.994Z,67.70
2017-10-20T08:21:33.273Z,67.10
2017-10-20T08:24:01.435Z,67.60
2017-10-20T08:26:29.610Z,67.10
2017-10-20T08:28:57.757Z,67.00
2017-10-20T08:31:25.941Z,67.10
2017-10-20T08:33:54.976Z,67.50
2017-10-20T08:36:23.881Z,67.20
2017-10-20T08:38:52.057Z,67.10
2017-10-20T08:41:20.202Z,67.20
2017-10-20T08:43:48.477Z,67.40
2017-10-20T08:46:16.621Z,68.40
2017-10-20T08:48:44.804Z,66.90
2017-10-20T08:51:12.940Z,66.00
2017-10-20T08:53:41.068Z,66.20
2017-10-20T08:56:09.237Z,65.80
2017-10-20T08:58:37.395Z,64.80
2017-10-20T09:01:05.581Z,65.00
2017-10-20T09:03:33.742Z,66.10
2017-10-20T09:06:01.910Z,65.10
2017-10-20T09:08:30.048Z,64.30
2017-10-20T09:10:58.307Z,60.50
2017-10-20T09:13:26.482Z,62.20
2017-10-20T09:15:54.624Z,62.20
2017-10-20T09:18:22.838Z,62.00
2017-10-20T09:20:50.957Z,62.30
2017-10-20T09:23:19.101Z,62.40
2017-10-20T09:25:47.290Z,62.60
2017-10-20T09:28:15.453Z,62.40
2017-10-20T09:30:43.593Z,60.70
2017-10-20T09:33:12.637Z,58.60
2017-10-20T09:35:40.764Z,58.60
2017-10-20T09:38:08.929Z,58.50
2017-10-20T09:40:37.833Z,57.50
2017-10-20T09:43:06.123Z,57.50
2017-10-20T09:45:34.244Z,56.80
2017-10-20T09:48:02.397Z,57.70
2017-10-20T09:50:30.577Z,56.50
2017-10-20T09:52:58.707Z,57.00
2017-10-20T09:55:26.869Z,56.20
2017-10-20T09:57:54.997Z,57.00
2017-10-20T10:00:23.264Z,56.40
2017-10-20T10:02:51.417Z,55.80
2017-10-20T10:05:19.571Z,55.80
2017-10-20T10:07:47.706Z,56.20
2017-10-20T10:10:15.881Z,54.00
2017-10-20T10:12:44.044Z,54.60
2017-10-20T10:15:12.177Z,53.40
2017-10-20T10:17:41.212Z,54.00
2017-10-20T10:20:09.352Z,54.00
2017-10-20T10:22:37.539Z,55.60
2017-10-20T10:25:05.724Z,54.10
2017-10-20T10:27:33.892Z,53.80
2017-10-20T10:30:02.055Z,54.60
2017-10-20T10:32:30.961Z,53.00
2017-10-20T10:34:59.129Z,52.90
2017-10-20T10:37:27.268Z,52.90
2017-10-20T10:39:55.542Z,53.00
2017-10-20T10:42:23.681Z,51.80
2017-10-20T10:44:51.841Z,52.50
2017-10-20T10:47:19.978Z,50.40
2017-10-20T10:49:48.149Z,49.90
2017-10-20T10:52:16.297Z,50.30
2017-10-20T10:54:45.201Z,49.20
2017-10-20T10:57:13.483Z,49.20
2017-10-20T10:59:41.612Z,50.40
2017-10-20T11:02:09.790Z,48.90
2017-10-20T11:04:37.929Z,49.70
2017-10-20T11:07:06.136Z,49.30
2017-10-20T11:09:34.275Z,51.20
2017-10-20T11:12:02.457Z,48.50
2017-10-20T11:14:30.597Z,48.50
2017-10-20T11:16:58.741Z,50.60
2017-10-20T11:19:26.883Z,49.30
2017-10-20T11:21:55.048Z,51.70
2017-10-20T11:24:23.340Z,53.80
2017-10-20T11:26:51.499Z,54.00
2017-10-20T11:29:19.652Z,51.80
2017-10-20T11:31:47.857Z,51.00
2017-10-20T11:34:16.044Z,50.10
2017-10-20T11:36:44.189Z,48.20
2017-10-20T11:39:12.491Z,50.60
2017-10-20T11:41:40.650Z,49.70
2017-10-20T11:44:08.789Z,50.70
2017-10-20T11:46:36.971Z,51.70
2017-10-20T11:49:05.134Z,52.20
2017-10-20T11:51:33.283Z,53.30
2017-10-20T11:54:01.460Z,53.20
2017-10-20T11:56:30.502Z,53.70
2017-10-20T11:58:58.639Z,53.70
2017-10-20T12:01:26.805Z,54.00
2017-10-20T12:03:55.006Z,54.10
2017-10-20T12:06:23.152Z,54.50
2017-10-20T12:08:51.326Z,53.90
2017-10-20T12:11:19.498Z,53.00
2017-10-20T12:13:48.399Z,52.40
2017-10-20T12:16:16.557Z,52.30
2017-10-20T12:18:44.698Z,53.30
2017-10-20T12:21:13.045Z,53.50
2017-10-20T12:23:41.176Z,54.10
2017-10-20T12:26:10.137Z,54.00
2017-10-20T12:28:38.272Z,53.90
2017-10-20T12:31:06.453Z,54.10
2017-10-20T12:33:34.585Z,54.70
2017-10-20T12:36:02.737Z,53.90
2017-10-20T12:38:31.794Z,54.20
2017-10-20T12:40:59.955Z,54.20
2017-10-20T12:43:28.101Z,54.50
2017-10-20T12:45:57.008Z,54.20
2017-10-20T12:48:25.173Z,54.20
2017-10-20T12:50:54.105Z,54.90
2017-10-20T12:53:22.299Z,54.80
2017-10-20T12:55:50.435Z,54.60
2017-10-20T12:58:18.609Z,54.40
2017-10-20T13:00:46.787Z,55.00
2017-10-20T13:03:14.939Z,55.20
2017-10-20T13:05:43.109Z,54.80
2017-10-20T13:08:12.000Z,55.30
2017-10-20T13:10:40.289Z,55.20
2017-10-20T13:13:08.425Z,55.20
2017-10-20T13:15:36.574Z,55.60
2017-10-20T13:18:04.758Z,55.50
2017-10-20T13:20:32.889Z,56.20
2017-10-20T13:23:01.045Z,55.10
2017-10-20T13:25:29.194Z,56.40
2017-10-20T13:27:57.496Z,56.20
2017-10-20T13:30:25.621Z,55.50
2017-10-20T13:32:53.785Z,56.40
2017-10-20T13:35:21.936Z,56.10
2017-10-20T13:37:50.850Z,55.20
2017-10-20T13:40:19.001Z,55.10
2017-10-20T13:42:47.149Z,55.60
2017-10-20T13:45:15.515Z,55.90
2017-10-20T13:47:44.448Z,55.80
2017-10-20T13:50:12.573Z,55.80
2017-10-20T13:52:41.516Z,55.90
2017-10-20T13:55:09.646Z,56.00
2017-10-20T13:57:38.598Z,56.20
2017-10-20T14:00:06.730Z,56.10
2017-10-20T14:02:34.904Z,56.50
2017-10-20T14:05:03.040Z,56.00
2017-10-20T14:07:31.166Z,56.00
2017-10-20T14:09:59.340Z,55.80
2017-10-20T14:12:27.477Z,56.50
2017-10-20T14:14:56.380Z,56.90
2017-10-20T14:17:24.566Z,56.90
2017-10-20T14:19:52.710Z,57.00
2017-10-20T14:22:21.636Z,57.20
2017-10-20T14:24:49.801Z,56.60
2017-10-20T14:27:17.962Z,56.00
2017-10-20T14:29:46.113Z,56.40
2017-10-20T14:32:14.365Z,56.40
2017-10-20T14:34:42.535Z,56.30
2017-10-20T14:37:10.685Z,55.80
2017-10-20T14:39:38.850Z,56.10
2017-10-20T14:42:07.017Z,56.60
2017-10-20T14:44:35.169Z,55.80
2017-10-20T14:47:04.080Z,56.70
2017-10-20T14:49:32.279Z,56.70
2017-10-20T14:52:00.430Z,57.00
2017-10-20T14:54:28.572Z,56.50
2017-10-20T14:56:56.741Z,56.90
2017-10-20T14:59:24.869Z,57.00
2017-10-20T15:01:53.051Z,57.00
2017-10-20T15:04:21.207Z,57.40
2017-10-20T15:06:49.490Z,57.60
2017-10-20T15:09:17.632Z,57.80
2017-10-20T15:11:45.786Z,58.10
2017-10-20T15:14:13.952Z,58.10
2017-10-20T15:16:42.101Z,58.30
2017-10-20T15:19:10.273Z,58.60
2017-10-20T15:21:38.414Z,58.70
2017-10-20T15:24:06.561Z,58.70
2017-10-20T15:26:35.638Z,59.20
2017-10-20T15:29:03.801Z,59.10
2017-10-20T15:31:31.959Z,59.20
2017-10-20T15:34:00.101Z,59.40
2017-10-20T15:36:28.275Z,59.30
2017-10-20T15:38:56.407Z,59.60
2017-10-20T15:41:24.690Z,60.00
2017-10-20T15:43:52.836Z,59.90
2017-10-20T15:46:20.973Z,60.30
2017-10-20T15:48:49.132Z,60.40
2017-10-20T15:51:17.290Z,60.90
2017-10-20T15:53:46.229Z,62.50
2017-10-20T15:56:14.383Z,62.40
2017-10-20T15:58:42.509Z,62.80
2017-10-20T16:01:10.724Z,62.90
2017-10-20T16:03:38.878Z,63.60
2017-10-20T16:06:07.836Z,63.60
2017-10-20T16:08:35.966Z,63.60
2017-10-20T16:11:04.143Z,63.90
2017-10-20T16:13:32.269Z,64.50
2017-10-20T16:16:00.578Z,64.70
2017-10-20T16:18:28.721Z,65.30
2017-10-20T16:20:56.854Z,65.40
2017-10-20T16:23:25.033Z,65.80
2017-10-20T16:25:53.181Z,66.50
2017-10-20T16:28:21.359Z,66.60
2017-10-20T16:30:49.506Z,66.40
2017-10-20T16:33:18.497Z,66.20
2017-10-20T16:35:46.700Z,66.20
2017-10-20T16:38:14.877Z,66.80
2017-10-20T16:40:43.423Z,66.40
2017-10-20T16:43:12.350Z,66.10
2017-10-20T16:45:40.560Z,66.70
2017-10-20T16:48:08.693Z,66.90
2017-10-20T16:50:36.957Z,67.20
2017-10-20T16:53:05.102Z,67.80
2017-10-20T16:55:33.263Z,68.10
2017-10-20T16:58:01.409Z,68.20
2017-10-20T17:00:29.594Z,68.10
2017-10-20T17:02:57.740Z,68.40
2017-10-20T17:05:26.867Z,68.10
2017-10-20T17:07:55.024Z,67.50
2017-10-20T17:10:23.157Z,67.40
2017-10-20T17:12:52.093Z,66.80
2017-10-20T17:15:20.239Z,66.70
2017-10-20T17:17:48.412Z,66.60
2017-10-20T17:20:16.556Z,66.60
2017-10-20T17:22:45.826Z,66.70
2017-10-20T17:25:14.117Z,66.50
2017-10-20T17:27:42.270Z,66.70
2017-10-20T17:30:10.473Z,66.60
2017-10-20T17:32:38.622Z,67.00
2017-10-20T17:35:06.755Z,66.90
2017-10-20T17:37:34.917Z,66.90
2017-10-20T17:40:03.828Z,67.60
2017-10-20T17:42:32.118Z,67.60
2017-10-20T17:45:00.277Z,68.30
2017-10-20T17:47:28.444Z,68.20
2017-10-20T17:49:56.600Z,68.60
2017-10-20T17:52:25.573Z,69.30
2017-10-20T17:54:53.716Z,69.30
2017-10-20T17:57:21.852Z,69.60
2017-10-20T17:59:50.044Z,70.10
2017-10-20T18:02:18.188Z,70.20
2017-10-20T18:04:47.133Z,70.70
2017-10-20T18:07:15.270Z,70.70
2017-10-20T18:09:43.411Z,71.10
2017-10-20T18:12:11.589Z,71.30
2017-10-20T18:14:40.522Z,70.90
2017-10-20T18:17:08.813Z,70.80
2017-10-20T18:19:36.978Z,70.70
2017-10-20T18:22:05.149Z,70.90
2017-10-20T18:24:33.334Z,70.90
2017-10-20T18:27:01.492Z,70.90
2017-10-20T18:29:29.663Z,70.60
2017-10-20T18:31:57.831Z,70.70
2017-10-20T18:34:26.010Z,70.80
2017-10-20T18:36:54.153Z,70.80
2017-10-20T18:39:23.114Z,71.00
2017-10-20T18:41:51.279Z,70.90
2017-10-20T18:44:19.443Z,71.40
2017-10-20T18:46:47.639Z,71.30
2017-10-20T18:49:15.772Z,71.70
2017-10-20T18:51:51.336Z,71.90
2017-10-20T18:54:19.614Z,72.60
2017-10-20T18:56:47.793Z,72.70
2017-10-20T18:59:15.951Z,73.00
2017-10-20T19:01:44.128Z,73.00
2017-10-20T19:04:12.279Z,73.10
2017-10-20T19:06:40.464Z,72.80
2017-10-20T19:09:08.776Z,73.00
2017-10-20T19:11:36.937Z,72.80
2017-10-20T19:14:05.095Z,72.60
2017-10-20T19:16:33.264Z,72.30
2017-10-20T19:19:01.405Z,72.40
2017-10-20T19:21:30.358Z,72.50
2017-10-20T19:23:58.499Z,72.50
2017-10-20T19:26:26.857Z,72.20
2017-10-20T19:28:55.764Z,71.50
2017-10-20T19:31:23.937Z,71.50
2017-10-20T19:33:52.107Z,71.20
2017-10-20T19:36:20.639Z,70.90
2017-10-20T19:38:52.961Z,70.70
2017-10-20T19:41:21.094Z,70.60
2017-10-20T19:43:49.309Z,70.40
2017-10-20T19:46:17.501Z,71.30
2017-10-20T19:48:45.749Z,70.60
2017-10-20T19:51:21.514Z,70.70
2017-10-20T19:53:49.662Z,70.50
2017-10-20T19:56:18.673Z,70.40
2017-10-20T19:58:46.831Z,70.40
2017-10-20T20:01:16.023Z,70.30
2017-10-20T20:03:45.165Z,70.10
2017-10-20T20:06:13.310Z,70.20
2017-10-20T20:08:41.508Z,70.20
2017-10-20T20:11:09.650Z,70.30
2017-10-20T20:13:37.857Z,70.30
2017-10-20T20:16:06.039Z,70.10
2017-10-20T20:18:34.181Z,70.10
2017-10-20T20:21:02.384Z,70.10
2017-10-20T20:23:30.531Z,70.00
2017-10-20T20:25:58.716Z,70.30
2017-10-20T20:28:26.876Z,70.30
2017-10-20T20:30:55.006Z,70.40
2017-10-20T20:33:23.225Z,70.70
2017-10-20T20:35:51.380Z,70.30
2017-10-20T20:38:20.431Z,70.50
2017-10-20T20:40:48.581Z,70.50
2017-10-20T20:43:16.778Z,70.30
2017-10-20T20:45:44.900Z,70.10
2017-10-20T20:48:13.085Z,70.10
2017-10-20T20:50:41.230Z,69.90
2017-10-20T20:53:10.308Z,69.50
2017-10-20T20:55:38.454Z,69.50
2017-10-20T20:58:06.599Z,69.40
2017-10-20T21:00:34.742Z,69.40
2017-10-20T21:03:03.661Z,69.70
2017-10-20T21:05:31.837Z,69.60
2017-10-20T21:07:59.984Z,69.80
2017-10-20T21:10:28.910Z,70.00
2017-10-20T21:12:57.214Z,69.90
2017-10-20T21:15:25.359Z,70.10
2017-10-20T21:17:53.540Z,71.00
2017-10-20T21:20:21.672Z,71.00
2017-10-20T21:22:50.573Z,71.00
2017-10-20T21:25:19.550Z,71.10
2017-10-20T21:27:47.681Z,71.20
2017-10-20T21:30:15.956Z,71.20
2017-10-20T21:32:44.102Z,71.30
2017-10-20T21:35:12.285Z,71.10
2017-10-20T21:37:40.404Z,71.00
2017-10-20T21:40:08.608Z,71.00
2017-10-20T21:42:37.515Z,70.90
2017-10-20T21:45:05.837Z,70.80
2017-10-20T21:47:33.958Z,71.20
2017-10-20T21:50:02.102Z,71.40
2017-10-20T21:52:30.283Z,71.60
2017-10-20T21:54:59.195Z,71.30
2017-10-20T21:57:28.158Z,71.00
2017-10-20T21:59:56.294Z,71.00
2017-10-20T22:02:24.584Z,70.70
2017-10-20T22:04:52.724Z,70.50
2017-10-20T22:07:20.877Z,70.40
2017-10-20T22:09:49.188Z,70.40
2017-10-20T22:12:18.108Z,71.00
2017-10-20T22:14:46.253Z,71.00
2017-10-20T22:17:14.436Z,71.10
2017-10-20T22:19:42.557Z,71.10
2017-10-20T22:22:11.520Z,71.20
2017-10-20T22:24:39.657Z,71.20
2017-10-20T22:27:07.886Z,71.20
2017-10-20T22:29:36.034Z,71.20
2017-10-20T22:32:04.228Z,71.20
2017-10-20T22:34:32.374Z,72.00
2017-10-20T22:37:00.517Z,71.40
2017-10-20T22:39:28.798Z,71.70
2017-10-20T22:41:56.933Z,71.50
2017-10-20T22:44:25.864Z,71.70
2017-10-20T22:46:53.994Z,71.60
2017-10-20T22:49:22.158Z,71.50
2017-10-20T22:51:50.308Z,71.50
2017-10-20T22:54:18.437Z,71.60
2017-10-20T22:56:46.695Z,71.90
2017-10-20T22:59:15.607Z,71.80
2017-10-20T23:01:43.772Z,71.80
2017-10-20T23:04:11.905Z,71.80
2017-10-20T23:06:40.074Z,71.60
2017-10-20T23:09:08.214Z,71.50
2017-10-20T23:11:36.361Z,71.60
2017-10-20T23:14:04.665Z,71.50
2017-10-20T23:16:32.790Z,71.80
2017-10-20T23:19:01.000Z,72.10
2017-10-20T23:21:29.130Z,72.60
2017-10-20T23:23:57.286Z,71.80
2017-10-20T23:26:25.444Z,71.60
2017-10-20T23:28:53.592Z,71.70
2017-10-20T23:31:21.757Z,71.60
2017-10-20T23:33:49.888Z,71.40
2017-10-20T23:36:18.173Z,71.40
2017-10-20T23:38:46.318Z,71.40
2017-10-20T23:41:14.476Z,71.80
2017-10-20T23:43:42.620Z,72.00
2017-10-20T23:46:11.515Z,71.90
2017-10-20T23:48:39.694Z,71.90
2017-10-20T23:51:07.832Z,71.90
2017-10-20T23:53:36.114Z,71.90
2017-10-20T23:56:04.250Z,71.90
2017-10-20T23:58:32.426Z,71.90
